CSE4 weather

Lachute Airport
Lachute, Quebec, Canada

Public forecast

Using degrees Celsius for public forecast. Weather courtesy of forecast.io.

Closest aviation weather report (METAR) to Lachute Airport

Closest report is Montreal International (Mirabel) Airport, 14.1 nm (26.2 km) E. Retrieved 2020/07/13 17:00 UTC (12 minutes ago):

CYMX 131700Z VRB04KT 45SM SCT045 SCT120 BKN270 26/17 A2976 RMK CU4AC1CI1 AC TR SLP079 DENSITY ALT 1800FT

Closest aviation forecast (TAF) to Lachute Airport

Closest forecast is Montreal International (Mirabel) Airport, 14.1 nm (26.2 km) E. Retrieved 2020/07/13 12:42 UTC (4 hours ago):

TAF CYMX 131139Z 1312/1412 VRB03KT P6SM FEW030 BKN070 BKN110 FM131400 26005KT P6SM BKN040 FM131800 28005KT P6SM BKN040 TEMPO 1318/1401 P6SM -SHRA PROB30 1319/1401 2SM TSRA BR BKN020 OVC040CB FM140100 30006KT P6SM -SHRA SCT020 OVC030 FM140600 02005KT P6SM -SHRA BKN015 OVC030 PROB30 1407/1412 3SM -SHRA BR OVC005 RMK NXT FCST BY 131800Z